Time;durP1;ratioP1;P1;durP2;ratioP2;P2;SDS_P1;SDS_P2;PMS_P1;PMS_P2;Temp;Humidity;BMP_temperature;BMP_pressure;BME280_temperature;BME280_humidity;BME280_pressure;Samples;Min_cycle;Max_cycle;Signal;HPM_P1;HPM_P2
2021/10/07 00:00:18;;;;;;;14.00;5.33;;;;;;;5.88;61.91;100516.36;1601496;89;21036;-66
2021/10/07 00:02:46;;;;;;;11.63;4.83;;;;;;;5.85;61.79;100515.84;1593090;89;21039;-66
2021/10/07 00:05:14;;;;;;;12.05;4.95;;;;;;;5.82;61.72;100518.36;1600862;89;21466;-67
2021/10/07 00:07:42;;;;;;;11.05;4.67;;;;;;;5.82;61.75;100521.39;1600668;89;21129;-65
2021/10/07 00:10:12;;;;;;;11.03;4.40;;;;;;;5.79;61.69;100525.22;1601026;88;21474;-65
2021/10/07 00:12:41;;;;;;;11.65;4.62;;;;;;;5.79;61.70;100525.22;1592921;90;20981;-68
2021/10/07 00:15:10;;;;;;;9.20;4.47;;;;;;;5.78;61.61;100523.44;1599350;88;20900;-67
2021/10/07 00:17:38;;;;;;;12.65;4.83;;;;;;;5.77;61.52;100521.66;1601917;88;21510;-68
2021/10/07 00:20:07;;;;;;;12.90;4.30;;;;;;;5.75;61.50;100521.60;1601561;88;21142;-67
2021/10/07 00:22:35;;;;;;;10.43;4.75;;;;;;;5.74;61.48;100517.62;1601514;88;20927;-65
2021/10/07 00:25:04;;;;;;;16.32;4.92;;;;;;;5.72;61.61;100515.37;1600678;88;20884;-65
2021/10/07 00:27:35;;;;;;;9.93;4.22;;;;;;;5.71;61.76;100518.41;1601311;88;20978;-67
2021/10/07 00:30:13;;;;;;;12.65;4.45;;;;;;;5.71;61.88;100513.59;1600604;88;21523;-67
2021/10/07 00:32:48;;;;;;;9.65;4.62;;;;;;;5.68;61.81;100511.33;1599651;88;21479;-67
2021/10/07 00:40:25;;;;;;;9.28;4.40;;;;;;;5.56;61.77;100514.80;1601576;88;21003;-68
2021/10/07 00:42:53;;;;;;;10.25;4.28;;;;;;;5.53;61.80;100527.77;1596138;88;21543;-67
2021/10/07 00:45:21;;;;;;;8.80;4.83;;;;;;;5.53;61.92;100522.54;1592045;88;21184;-68
2021/10/07 00:47:50;;;;;;;10.93;4.50;;;;;;;5.51;62.10;100518.98;1573735;89;21567;-68
2021/10/07 00:50:18;;;;;;;11.10;4.62;;;;;;;5.51;62.23;100510.23;1592271;89;21481;-65
2021/10/07 00:52:46;;;;;;;7.03;4.60;;;;;;;5.51;62.43;100517.66;1590126;89;21015;-65
2021/10/07 00:55:14;;;;;;;10.88;4.75;;;;;;;5.50;62.69;100508.45;1586741;89;21057;-67
2021/10/07 00:57:42;;;;;;;12.53;4.35;;;;;;;5.49;62.85;100513.22;1572982;90;21117;-69
2021/10/07 01:00:10;;;;;;;9.68;4.45;;;;;;;5.49;62.92;100513.22;1571041;89;20936;-68
2021/10/07 01:02:38;;;;;;;12.15;4.10;;;;;;;5.45;63.05;100516.56;1590681;89;20922;-68
2021/10/07 01:05:08;;;;;;;8.80;4.70;;;;;;;5.43;63.17;100512.58;1585101;89;21001;-68
2021/10/07 01:07:38;;;;;;;14.23;4.37;;;;;;;5.40;63.27;100513.77;1569141;90;20965;-66
2021/10/07 01:10:08;;;;;;;11.75;4.47;;;;;;;5.37;63.38;100520.20;1551912;88;21499;-66
2021/10/07 01:12:36;;;;;;;16.27;4.33;;;;;;;5.34;63.52;100517.48;1588691;88;21466;-65
2021/10/07 01:15:05;;;;;;;10.20;4.05;;;;;;;5.32;63.77;100521.34;1585396;88;21450;-66
2021/10/07 01:17:33;;;;;;;6.80;3.80;;;;;;;5.30;63.88;100523.44;1567128;90;20941;-66
2021/10/07 01:20:04;;;;;;;7.30;3.92;;;;;;;5.27;64.03;100518.09;1564053;90;21520;-64
2021/10/07 01:22:32;;;;;;;14.85;4.25;;;;;;;5.24;64.01;100521.91;1563825;90;21110;-66
2021/10/07 01:25:01;;;;;;;7.15;3.87;;;;;;;5.21;64.14;100526.60;1591627;89;21423;-65
2021/10/07 01:27:31;;;;;;;7.78;3.83;;;;;;;5.17;64.17;100522.06;1590965;89;21044;-65
2021/10/07 01:30:02;;;;;;;9.18;4.20;;;;;;;5.14;64.32;100521.05;1583241;89;20992;-65
2021/10/07 01:32:37;;;;;;;10.55;4.20;;;;;;;5.12;64.52;100526.64;1565682;89;21528;-65
2021/10/07 01:35:07;;;;;;;8.30;3.37;;;;;;;5.07;64.66;100525.16;1563429;91;21119;-65
2021/10/07 01:37:35;;;;;;;10.10;4.05;;;;;;;5.04;64.79;100528.55;1556587;90;21001;-65
2021/10/07 01:40:05;;;;;;;12.37;4.00;;;;;;;5.03;64.89;100532.42;1543153;91;21013;-66
2021/10/07 01:42:33;;;;;;;7.87;3.42;;;;;;;4.98;64.94;100524.82;1573765;88;21483;-65
2021/10/07 01:45:01;;;;;;;8.75;3.72;;;;;;;4.95;65.10;100527.31;1595048;88;20980;-64
2021/10/07 01:47:32;;;;;;;11.70;4.58;;;;;;;4.94;65.38;100521.61;1598801;88;21435;-65
2021/10/07 01:50:01;;;;;;;7.05;3.62;;;;;;;4.92;65.50;100528.52;1600045;88;20944;-65
2021/10/07 01:52:29;;;;;;;7.00;3.92;;;;;;;4.91;65.69;100531.95;1599877;88;21477;-65
2021/10/07 01:54:57;;;;;;;9.15;3.95;;;;;;;4.87;65.70;100534.87;1599805;88;21034;-65
2021/10/07 01:57:25;;;;;;;10.43;3.55;;;;;;;4.85;66.01;100539.15;1595083;88;21115;-65
2021/10/07 01:59:53;;;;;;;17.62;4.42;;;;;;;4.82;66.31;100536.42;1593144;88;21101;-65
2021/10/07 02:02:21;;;;;;;10.90;3.98;;;;;;;4.82;66.75;100540.34;1595835;88;21020;-64
2021/10/07 02:04:50;;;;;;;11.48;3.65;;;;;;;4.84;67.12;100540.39;1599179;88;21507;-65
2021/10/07 02:07:20;;;;;;;7.03;3.70;;;;;;;4.82;67.36;100544.26;1587044;88;21524;-65
2021/10/07 02:09:48;;;;;;;9.63;3.55;;;;;;;4.81;67.55;100541.59;1596123;88;20986;-65
2021/10/07 02:12:19;;;;;;;9.70;3.98;;;;;;;4.81;67.64;100546.40;1599586;88;21099;-64
2021/10/07 02:14:46;;;;;;;6.80;3.75;;;;;;;4.77;67.68;100547.11;1599715;88;20963;-65
2021/10/07 02:17:16;;;;;;;18.57;4.03;;;;;;;4.76;67.89;100549.25;1599171;88;21465;-64
2021/10/07 02:19:45;;;;;;;7.70;3.70;;;;;;;4.76;67.97;100553.59;1599899;88;20911;-65
2021/10/07 02:22:13;;;;;;;10.75;3.58;;;;;;;4.73;68.06;100549.13;1598691;88;21502;-65
2021/10/07 02:24:41;;;;;;;7.25;3.62;;;;;;;4.73;68.10;100551.74;1599793;88;21473;-64
2021/10/07 02:27:09;;;;;;;9.88;3.52;;;;;;;4.71;68.26;100555.98;1599413;88;20947;-64
2021/10/07 02:29:38;;;;;;;9.70;3.85;;;;;;;4.68;68.45;100551.53;1600048;88;21455;-63
2021/10/07 02:32:08;;;;;;;8.50;3.62;;;;;;;4.67;68.75;100556.70;1592519;88;21483;-64
2021/10/07 02:34:36;;;;;;;10.93;4.03;;;;;;;4.65;68.86;100551.41;1584073;88;20955;-64
2021/10/07 02:37:04;;;;;;;7.50;4.10;;;;;;;4.63;68.91;100557.41;1598508;88;21154;-65
2021/10/07 02:39:33;;;;;;;8.35;3.65;;;;;;;4.60;68.91;100558.17;1581825;88;21517;-65
2021/10/07 02:42:02;;;;;;;9.68;4.60;;;;;;;4.56;68.86;100556.69;1596930;88;21022;-66
2021/10/07 02:44:31;;;;;;;9.00;3.80;;;;;;;4.52;68.82;100563.92;1597300;88;21105;-66
2021/10/07 02:47:01;;;;;;;8.45;3.80;;;;;;;4.47;68.68;100558.52;1597791;88;21142;-65
2021/10/07 02:49:30;;;;;;;12.47;4.00;;;;;;;4.43;68.92;100556.61;1596497;88;21594;-67
2021/10/07 02:52:00;;;;;;;8.13;3.77;;;;;;;4.38;69.40;100557.72;1592869;88;21508;-65
2021/10/07 02:54:29;;;;;;;10.70;3.87;;;;;;;4.35;69.95;100558.02;1592510;88;21454;-65
2021/10/07 02:57:02;;;;;;;14.68;4.67;;;;;;;4.30;70.30;100560.44;1592784;88;21032;-63
2021/10/07 02:59:29;;;;;;;7.50;4.12;;;;;;;4.26;70.72;100557.22;1592790;88;20987;-63
2021/10/07 03:02:01;;;;;;;12.37;4.37;;;;;;;4.24;70.89;100557.54;1593525;87;21074;-69
2021/10/07 03:13:04;;;;;;;7.90;4.20;;;;;;;4.19;72.54;100560.78;1597914;88;21042;-65
2021/10/07 03:15:37;;;;;;;11.03;3.85;;;;;;;4.16;73.44;100562.86;1600372;88;21058;-65
2021/10/07 03:18:06;;;;;;;14.20;3.50;;;;;;;4.15;73.87;100559.77;1601711;88;21131;-66
2021/10/07 03:20:34;;;;;;;8.73;4.08;;;;;;;4.16;74.00;100564.58;1601700;88;21727;-64
2021/10/07 03:23:02;;;;;;;15.35;4.20;;;;;;;4.14;74.14;100561.91;1598726;88;21043;-66
2021/10/07 03:25:31;;;;;;;7.25;3.33;;;;;;;4.13;74.15;100565.76;1592532;88;21474;-67
2021/10/07 03:27:58;;;;;;;9.83;4.30;;;;;;;4.09;74.14;100563.02;1595280;87;21448;-67
2021/10/07 03:30:27;;;;;;;9.35;3.52;;;;;;;4.08;74.29;100567.77;1598670;87;21503;-65
2021/10/07 03:32:55;;;;;;;6.97;3.05;;;;;;;4.06;74.27;100571.14;1592485;88;20931;-66
2021/10/07 03:35:23;;;;;;;9.00;4.70;;;;;;;4.04;74.31;100579.31;1592741;88;20974;-66
2021/10/07 03:37:52;;;;;;;8.95;3.58;;;;;;;4.01;74.47;100584.00;1591177;88;21032;-66
2021/10/07 03:40:20;;;;;;;5.28;3.42;;;;;;;3.98;74.58;100581.25;1593065;88;20896;-66
2021/10/07 03:42:47;;;;;;;7.90;3.05;;;;;;;3.96;74.96;100585.52;1593158;88;21104;-68
2021/10/07 03:45:31;;;;;;;11.30;3.75;;;;;;;3.94;75.25;100585.87;1601335;88;20971;-64
2021/10/07 03:47:59;;;;;;;7.40;3.85;;;;;;;3.91;75.53;100589.65;1582001;88;21390;-68
2021/10/07 03:50:30;;;;;;;12.35;4.40;;;;;;;3.89;75.87;100588.69;1571207;89;21677;-66
2021/10/07 03:52:57;;;;;;;10.18;3.47;;;;;;;3.88;76.21;100589.93;1572212;89;21445;-65
2021/10/07 03:55:25;;;;;;;11.15;3.33;;;;;;;3.85;76.62;100592.41;1566702;91;21480;-64
2021/10/07 03:57:54;;;;;;;5.12;3.58;;;;;;;3.79;77.24;100591.31;1566793;90;21554;-65
2021/10/07 04:00:21;;;;;;;9.08;3.85;;;;;;;3.79;77.91;100589.12;1570330;90;21000;-65
2021/10/07 04:02:49;;;;;;;6.80;3.65;;;;;;;3.76;78.35;100592.45;1571836;90;21049;-65
2021/10/07 04:05:16;;;;;;;6.80;3.67;;;;;;;3.72;78.72;100594.45;1573615;89;20940;-65
2021/10/07 04:07:44;;;;;;;7.40;3.45;;;;;;;3.70;79.15;100595.20;1572646;89;21110;-65
2021/10/07 04:10:13;;;;;;;8.10;3.62;;;;;;;3.66;79.68;100595.48;1571891;90;21012;-65
2021/10/07 04:12:41;;;;;;;14.05;3.72;;;;;;;3.64;80.11;100594.52;1573805;90;21011;-65
2021/10/07 04:15:10;;;;;;;9.55;3.60;;;;;;;3.62;80.24;100597.89;1572912;90;21174;-65
2021/10/07 04:17:38;;;;;;;9.03;2.90;;;;;;;3.57;80.51;100602.91;1573073;89;21040;-64
2021/10/07 04:20:07;;;;;;;20.17;3.90;;;;;;;3.53;81.07;100597.48;1571048;90;22004;-65
2021/10/07 04:22:35;;;;;;;7.08;3.52;;;;;;;3.50;81.45;100600.84;1565987;91;21471;-64
2021/10/07 04:25:04;;;;;;;9.50;3.50;;;;;;;3.49;82.03;100604.27;1569055;90;21480;-64
2021/10/07 04:27:33;;;;;;;7.97;3.35;;;;;;;3.47;82.50;100611.14;1571282;90;21475;-65
2021/10/07 04:30:03;;;;;;;9.30;3.80;;;;;;;3.45;83.07;100616.70;1572556;89;20951;-64
2021/10/07 04:32:32;;;;;;;10.70;4.05;;;;;;;3.44;83.57;100613.20;1572494;89;20885;-64
2021/10/07 04:34:59;;;;;;;6.78;3.40;;;;;;;3.44;84.12;100611.00;1570834;91;20940;-63
2021/10/07 04:37:28;;;;;;;7.83;3.58;;;;;;;3.43;84.64;100616.63;1570581;91;20953;-64
2021/10/07 04:39:56;;;;;;;10.20;3.87;;;;;;;3.43;85.22;100617.94;1571163;89;21484;-64
2021/10/07 04:42:24;;;;;;;8.25;3.52;;;;;;;3.43;85.93;100620.55;1572295;90;21472;-65
2021/10/07 04:44:53;;;;;;;10.58;3.95;;;;;;;3.43;86.64;100621.84;1575281;90;21735;-67
2021/10/07 04:47:21;;;;;;;6.50;3.15;;;;;;;3.44;87.27;100614.50;1573478;89;20936;-64
2021/10/07 04:49:48;;;;;;;10.45;3.33;;;;;;;3.46;87.84;100614.57;1571386;89;20992;-64
2021/10/07 04:52:15;;;;;;;6.42;3.37;;;;;;;3.48;88.41;100615.53;1574123;90;21027;-65
2021/10/07 04:54:44;;;;;;;7.08;3.10;;;;;;;3.50;89.00;100616.91;1573754;90;21633;-64
2021/10/07 04:57:12;;;;;;;9.33;3.33;;;;;;;3.52;89.63;100623.98;1574548;90;21468;-64
2021/10/07 04:59:40;;;;;;;9.43;3.45;;;;;;;3.55;90.17;100620.62;1573614;89;20893;-64
2021/10/07 05:02:07;;;;;;;11.53;4.03;;;;;;;3.58;90.55;100627.28;1573227;89;20937;-64
2021/10/07 05:04:35;;;;;;;8.38;3.60;;;;;;;3.61;91.02;100628.72;1574778;90;20972;-64
2021/10/07 05:07:03;;;;;;;35.23;5.53;;;;;;;3.64;91.36;100631.47;1573838;90;20996;-64
2021/10/07 05:09:31;;;;;;;15.43;4.03;;;;;;;3.68;91.71;100636.00;1573503;90;21140;-65
2021/10/07 05:11:59;;;;;;;12.20;3.37;;;;;;;3.71;92.12;100634.42;1574783;89;21037;-64
2021/10/07 05:14:27;;;;;;;50.12;8.60;;;;;;;3.75;92.51;100638.95;1574480;89;20993;-64
2021/10/07 05:16:54;;;;;;;12.88;4.20;;;;;;;3.82;92.99;100630.13;1575357;89;21048;-64
2021/10/07 05:19:22;;;;;;;14.28;3.85;;;;;;;3.86;93.40;100631.62;1575306;89;21488;-65
2021/10/07 05:21:51;;;;;;;12.03;3.87;;;;;;;3.94;93.82;100643.71;1574172;90;21489;-65
2021/10/07 05:24:18;;;;;;;8.30;3.40;;;;;;;3.99;94.13;100645.70;1573220;90;21612;-65
2021/10/07 05:26:46;;;;;;;14.87;3.77;;;;;;;4.06;94.47;100642.94;1575469;89;20904;-65
2021/10/07 05:29:14;;;;;;;9.88;3.80;;;;;;;4.13;94.77;100649.33;1573325;89;21036;-65
2021/10/07 05:31:42;;;;;;;12.15;3.58;;;;;;;4.19;94.74;100653.09;1572853;90;21033;-65
2021/10/07 05:34:10;;;;;;;18.20;4.28;;;;;;;4.27;94.92;100650.43;1573319;89;21141;-65
2021/10/07 05:36:37;;;;;;;59.67;7.70;;;;;;;4.34;94.97;100654.20;1572990;89;21448;-65
2021/10/07 05:39:05;;;;;;;15.23;3.83;;;;;;;4.42;94.85;100650.19;1573503;90;20980;-65
2021/10/07 05:41:33;;;;;;;9.68;3.70;;;;;;;4.49;94.53;100650.92;1573442;90;20992;-64
2021/10/07 05:44:01;;;;;;;7.70;3.65;;;;;;;4.55;94.18;100657.70;1574695;89;21041;-64
2021/10/07 05:46:31;;;;;;;8.35;3.62;;;;;;;4.60;93.64;100656.17;1574936;90;21143;-65
2021/10/07 05:49:00;;;;;;;8.18;3.90;;;;;;;4.65;93.29;100658.56;1571305;90;21441;-64
2021/10/07 05:51:27;;;;;;;9.53;3.70;;;;;;;4.71;93.07;100658.81;1568327;90;21037;-65
2021/10/07 05:53:55;;;;;;;57.53;8.18;;;;;;;4.76;92.75;100658.15;1569212;91;20976;-65
2021/10/07 05:56:23;;;;;;;7.83;3.77;;;;;;;4.82;92.50;100664.94;1571035;91;20992;-64
2021/10/07 05:58:52;;;;;;;9.28;4.28;;;;;;;4.89;92.53;100662.63;1570483;89;21115;-65
2021/10/07 06:01:20;;;;;;;11.73;4.72;;;;;;;4.96;92.43;100663.77;1574368;90;20924;-64
2021/10/07 06:03:48;;;;;;;59.40;5.97;;;;;;;5.02;91.94;100661.40;1573984;90;20976;-64
2021/10/07 06:06:15;;;;;;;15.38;4.12;;;;;;;5.09;91.36;100663.84;1573556;89;20980;-64
2021/10/07 06:08:43;;;;;;;11.22;3.87;;;;;;;5.18;91.04;100666.41;1574171;90;21487;-64
2021/10/07 06:11:11;;;;;;;9.45;4.00;;;;;;;5.26;90.55;100664.13;1571006;90;21140;-64
2021/10/07 06:13:39;;;;;;;10.00;4.83;;;;;;;5.34;90.22;100664.90;1575023;90;20980;-65
2021/10/07 06:16:07;;;;;;;14.47;4.45;;;;;;;5.44;89.74;100662.63;1577310;89;20980;-65
2021/10/07 06:18:35;;;;;;;8.48;3.40;;;;;;;5.53;89.03;100662.98;1572551;90;20980;-65
2021/10/07 06:21:03;;;;;;;12.93;4.45;;;;;;;5.62;88.48;100655.48;1569187;90;21452;-65
2021/10/07 06:23:32;;;;;;;10.60;3.70;;;;;;;5.71;86.92;100660.20;1567336;91;21830;-65
2021/10/07 06:25:59;;;;;;;10.05;3.37;;;;;;;5.80;85.63;100660.13;1567375;91;20968;-65
2021/10/07 06:28:27;;;;;;;11.88;4.58;;;;;;;5.90;84.58;100659.66;1569159;90;21020;-66
2021/10/07 06:30:55;;;;;;;9.60;3.27;;;;;;;6.00;83.58;100660.87;1569684;91;20984;-65
2021/10/07 06:33:22;;;;;;;12.50;4.22;;;;;;;6.09;82.71;100662.94;1569698;91;21045;-65
2021/10/07 06:35:49;;;;;;;14.93;4.42;;;;;;;6.20;81.85;100662.93;1571694;90;21131;-65
2021/10/07 06:38:17;;;;;;;8.95;3.72;;;;;;;6.30;81.04;100662.41;1571802;90;20928;-65
2021/10/07 06:40:44;;;;;;;10.75;3.52;;;;;;;6.41;80.33;100660.16;1577431;90;21482;-65
2021/10/07 06:43:11;;;;;;;18.25;4.65;;;;;;;6.51;79.31;100663.16;1576890;90;20944;-65
2021/10/07 06:45:39;;;;;;;15.25;4.25;;;;;;;6.63;78.57;100667.95;1572767;90;21028;-65
2021/10/07 06:48:09;;;;;;;37.30;6.10;;;;;;;6.75;77.83;100662.23;1573269;90;21786;-66
2021/10/07 06:50:40;;;;;;;22.17;4.83;;;;;;;6.85;76.96;100649.88;1568664;90;20989;-66
2021/10/07 06:53:05;;;;;;;14.33;4.55;;;;;;;6.97;76.10;100662.08;1574302;90;21040;-65
2021/10/07 06:55:33;;;;;;;11.45;4.20;;;;;;;7.08;75.11;100663.31;1576008;90;20940;-65
2021/10/07 06:58:01;;;;;;;16.00;4.80;;;;;;;7.19;74.71;100661.06;1575722;90;21048;-65
2021/10/07 07:00:31;;;;;;;16.07;4.87;;;;;;;7.31;74.02;100652.26;1573249;90;21142;-65
2021/10/07 07:02:59;;;;;;;25.57;4.90;;;;;;;7.42;73.24;100660.04;1574071;90;21546;-65
2021/10/07 07:05:27;;;;;;;16.90;4.25;;;;;;;7.54;72.66;100658.20;1573130;90;20933;-66
2021/10/07 07:07:55;;;;;;;9.10;3.90;;;;;;;7.65;72.39;100655.51;1573035;90;21454;-66
2021/10/07 07:10:22;;;;;;;43.25;4.90;;;;;;;7.79;72.18;100655.48;1572579;90;21444;-65
2021/10/07 07:12:50;;;;;;;8.68;4.12;;;;;;;7.94;71.35;100655.03;1576221;90;21942;-65
2021/10/07 07:15:20;;;;;;;18.87;4.25;;;;;;;8.08;70.40;100652.82;1577252;90;21440;-66
2021/10/07 07:17:48;;;;;;;16.82;4.37;;;;;;;8.19;69.62;100652.27;1574854;90;20964;-66
2021/10/07 07:20:15;;;;;;;15.72;4.83;;;;;;;8.32;68.80;100652.59;1574262;90;21456;-66
2021/10/07 07:22:42;;;;;;;16.40;4.05;;;;;;;8.45;68.45;100642.90;1575140;90;20944;-65
2021/10/07 07:25:10;;;;;;;11.00;4.12;;;;;;;8.57;67.77;100643.25;1573136;90;21086;-66
2021/10/07 07:27:38;;;;;;;16.20;4.28;;;;;;;8.69;67.28;100648.82;1575449;90;20959;-65
2021/10/07 07:30:07;;;;;;;13.62;4.35;;;;;;;8.82;66.84;100652.64;1570239;90;21005;-66
2021/10/07 07:32:35;;;;;;;13.18;5.25;;;;;;;8.93;66.02;100655.53;1570959;90;20976;-66
2021/10/07 07:35:05;;;;;;;16.02;5.10;;;;;;;9.04;65.38;100640.92;1568327;90;21012;-66
2021/10/07 07:37:33;;;;;;;15.93;5.58;;;;;;;9.16;64.79;100654.37;1570533;90;21713;-66
2021/10/07 07:40:00;;;;;;;19.25;5.33;;;;;;;9.27;64.14;100647.61;1574523;90;20924;-66
2021/10/07 07:42:28;;;;;;;15.58;5.00;;;;;;;9.38;63.43;100650.48;1571800;91;20945;-66
2021/10/07 07:44:55;;;;;;;15.50;5.42;;;;;;;9.49;62.78;100655.59;1571712;90;21005;-66
2021/10/07 07:47:23;;;;;;;17.73;5.62;;;;;;;9.60;62.24;100654.52;1567921;91;20987;-66
2021/10/07 07:49:51;;;;;;;13.40;5.72;;;;;;;9.71;61.97;100646.41;1569335;91;21444;-66
2021/10/07 07:52:19;;;;;;;15.88;5.28;;;;;;;9.81;61.32;100645.74;1572915;90;20977;-66
2021/10/07 07:54:47;;;;;;;12.60;5.40;;;;;;;9.93;60.82;100642.47;1571478;90;21460;-66
2021/10/07 07:57:15;;;;;;;18.52;5.78;;;;;;;10.06;60.08;100641.45;1573692;90;20979;-66
2021/10/07 07:59:43;;;;;;;15.53;6.08;;;;;;;10.17;59.42;100636.39;1568345;90;20952;-66
2021/10/07 08:02:15;;;;;;;14.80;6.58;;;;;;;10.27;59.11;100641.44;1575754;90;21195;-66
2021/10/07 08:04:42;;;;;;;18.85;6.47;;;;;;;10.38;58.48;100633.29;1576633;90;20973;-66
2021/10/07 08:07:10;;;;;;;22.67;6.25;;;;;;;10.48;57.58;100629.99;1568999;90;20949;-66
2021/10/07 08:09:43;;;;;;;18.87;5.65;;;;;;;10.57;56.71;100634.54;1571612;90;20996;-66
2021/10/07 08:12:09;;;;;;;14.28;5.58;;;;;;;10.64;56.22;100631.14;1572758;90;21085;-66
2021/10/07 08:14:37;;;;;;;18.73;5.80;;;;;;;10.75;55.90;100628.69;1575083;90;21155;-66
2021/10/07 08:17:05;;;;;;;11.45;4.70;;;;;;;10.85;55.45;100630.17;1573820;90;21582;-65
2021/10/07 08:19:33;;;;;;;13.15;5.00;;;;;;;10.95;55.13;100629.92;1573966;90;20908;-66
2021/10/07 08:22:01;;;;;;;14.50;4.40;;;;;;;11.03;54.64;100629.61;1573184;89;20940;-66
2021/10/07 08:24:29;;;;;;;16.50;4.55;;;;;;;11.09;54.00;100620.47;1574853;90;20936;-66
2021/10/07 08:26:57;;;;;;;13.80;4.35;;;;;;;11.13;53.58;100631.96;1577849;90;21133;-66
2021/10/07 08:29:25;;;;;;;19.35;4.83;;;;;;;11.19;53.30;100626.77;1576955;90;21431;-66
2021/10/07 08:31:53;;;;;;;14.33;4.35;;;;;;;11.26;52.97;100623.35;1574129;89;21025;-66
2021/10/07 08:34:21;;;;;;;26.07;4.42;;;;;;;11.31;52.58;100626.52;1574706;90;20937;-66
2021/10/07 08:36:51;;;;;;;21.40;4.75;;;;;;;11.40;52.42;100627.55;1574391;90;20988;-67
2021/10/07 08:39:19;;;;;;;24.43;4.78;;;;;;;11.47;52.24;100623.69;1573140;89;21131;-66
2021/10/07 08:41:50;;;;;;;26.73;4.83;;;;;;;11.56;51.98;100626.88;1572663;90;20913;-66
2021/10/07 08:44:18;;;;;;;14.53;4.03;;;;;;;11.62;51.64;100613.75;1573914;90;20977;-67
2021/10/07 08:46:50;;;;;;;17.73;4.50;;;;;;;11.70;51.45;100617.38;1573933;90;20952;-66
2021/10/07 08:49:20;;;;;;;21.15;4.58;;;;;;;11.79;51.32;100611.35;1570711;90;20948;-67
2021/10/07 08:51:47;;;;;;;17.30;4.45;;;;;;;11.89;51.13;100612.83;1573077;90;21772;-66
2021/10/07 08:54:15;;;;;;;14.40;4.28;;;;;;;12.03;51.02;100618.28;1573122;90;21524;-66
2021/10/07 08:56:43;;;;;;;10.08;3.87;;;;;;;12.14;50.71;100610.46;1568095;91;20980;-66
2021/10/07 08:59:14;;;;;;;12.78;4.37;;;;;;;12.25;50.08;100614.11;1570083;90;21539;-68
2021/10/07 09:01:49;;;;;;;18.05;4.58;;;;;;;12.37;49.67;100610.73;1568065;89;20989;-68
2021/10/07 09:04:23;;;;;;;16.10;4.30;;;;;;;12.46;49.26;100619.64;1571961;90;21120;-67
2021/10/07 09:06:54;;;;;;;14.65;4.17;;;;;;;12.52;48.55;100616.16;1573112;90;20940;-67
2021/10/07 09:09:22;;;;;;;11.85;3.83;;;;;;;12.55;48.11;100616.19;1574959;90;20968;-66
2021/10/07 09:11:56;;;;;;;20.40;4.40;;;;;;;12.66;47.98;100617.17;1577716;90;20996;-67
2021/10/07 09:14:27;;;;;;;10.85;3.80;;;;;;;12.73;47.67;100619.00;1572565;90;20993;-66
2021/10/07 09:16:55;;;;;;;17.57;4.50;;;;;;;12.77;47.12;100613.29;1573609;89;21141;-67
2021/10/07 09:19:36;;;;;;;93.75;11.70;;;;;;;12.85;47.03;100606.33;1574230;90;21460;-67
2021/10/07 09:22:16;;;;;;;17.98;4.47;;;;;;;12.99;46.89;100617.91;1573856;90;21508;-66
2021/10/07 09:24:52;;;;;;;20.00;3.87;;;;;;;13.14;46.55;100611.39;1574897;90;21554;-66
2021/10/07 09:27:26;;;;;;;12.15;3.85;;;;;;;13.26;45.98;100613.74;1575023;89;21036;-66
2021/10/07 09:29:59;;;;;;;13.32;3.75;;;;;;;13.36;45.65;100614.24;1572924;90;21111;-67
2021/10/07 09:32:43;;;;;;;10.58;3.50;;;;;;;13.44;45.18;100609.87;1577407;90;21464;-66
2021/10/07 09:35:12;;;;;;;14.90;4.00;;;;;;;13.54;44.68;100607.27;1577098;90;20985;-64
2021/10/07 09:37:47;;;;;;;21.40;4.12;;;;;;;13.67;44.11;100604.68;1577024;90;21460;-66
2021/10/07 09:40:21;;;;;;;18.48;4.20;;;;;;;13.75;43.78;100597.23;1574909;90;20976;-66
2021/10/07 09:43:00;;;;;;;15.85;3.70;;;;;;;13.83;43.54;100598.15;1571868;90;21156;-65
2021/10/07 09:45:34;;;;;;;17.98;3.85;;;;;;;13.91;43.09;100597.29;1572049;90;21433;-66
2021/10/07 09:48:08;;;;;;;24.70;3.83;;;;;;;14.00;42.85;100596.87;1567366;90;20921;-66
2021/10/07 09:50:41;;;;;;;14.38;3.30;;;;;;;14.12;42.45;100586.73;1568039;91;21040;-67
2021/10/07 09:53:13;;;;;;;20.12;3.80;;;;;;;14.20;42.08;100585.45;1571075;90;21473;-66
2021/10/07 09:55:45;;;;;;;12.33;3.17;;;;;;;14.28;41.86;100591.66;1572402;90;21520;-67
2021/10/07 09:58:17;;;;;;;11.83;3.52;;;;;;;14.37;41.58;100596.98;1564831;90;20976;-67
2021/10/07 10:00:55;;;;;;;16.40;4.12;;;;;;;14.41;41.29;100593.45;1566831;89;20940;-67
2021/10/07 10:03:24;;;;;;;12.95;3.70;;;;;;;14.42;41.03;100593.48;1571179;90;20979;-67
2021/10/07 10:05:52;;;;;;;13.03;3.67;;;;;;;14.49;41.15;100593.94;1572921;89;20992;-67
2021/10/07 10:08:20;;;;;;;10.45;3.25;;;;;;;14.63;41.28;100594.39;1569531;91;21129;-67
2021/10/07 10:10:51;;;;;;;9.90;3.55;;;;;;;14.73;40.62;100594.42;1568950;90;21083;-67
2021/10/07 10:13:18;;;;;;;14.87;2.85;;;;;;;14.79;40.27;100589.55;1571225;89;21024;-67
2021/10/07 10:15:45;;;;;;;19.75;3.60;;;;;;;14.85;40.00;100596.63;1571406;90;21455;-68
2021/10/07 10:18:15;;;;;;;22.80;3.72;;;;;;;14.94;39.74;100589.53;1572222;90;20944;-67
2021/10/07 10:20:53;;;;;;;11.15;3.90;;;;;;;15.02;39.35;100588.20;1573328;90;21116;-67
2021/10/07 10:23:23;;;;;;;16.52;3.72;;;;;;;15.07;38.95;100589.08;1567736;91;20984;-66
2021/10/07 10:25:57;;;;;;;23.80;3.90;;;;;;;15.12;38.82;100588.17;1571919;90;21544;-67
2021/10/07 10:28:46;;;;;;;34.70;4.60;;;;;;;15.22;38.82;100575.79;1573043;90;20967;-67
2021/10/07 10:31:17;;;;;;;14.47;3.92;;;;;;;15.34;38.60;100568.22;1571098;89;20933;-66
2021/10/07 10:33:48;;;;;;;15.93;3.70;;;;;;;15.39;38.17;100577.07;1570962;91;21158;-67
2021/10/07 10:36:33;;;;;;;14.25;4.25;;;;;;;15.43;38.13;100571.73;1569405;91;20980;-67
2021/10/07 10:39:20;;;;;;;24.00;4.30;;;;;;;15.51;38.09;100566.39;1570563;90;20908;-67
2021/10/07 10:41:57;;;;;;;9.95;3.77;;;;;;;15.60;37.82;100557.52;1570696;91;20975;-67
2021/10/07 10:44:42;;;;;;;18.35;3.80;;;;;;;15.66;37.56;100560.19;1570693;90;21517;-67
2021/10/07 10:47:14;;;;;;;13.83;3.70;;;;;;;15.71;37.21;100553.95;1569299;89;21049;-67
2021/10/07 10:49:49;;;;;;;17.60;3.72;;;;;;;15.80;36.64;100538.84;1563659;90;20937;-67
2021/10/07 10:52:31;;;;;;;22.32;3.98;;;;;;;15.80;36.64;100538.84;1565376;90;21437;-67
2021/10/07 10:55:06;;;;;;;12.85;3.47;;;;;;;15.84;36.38;100548.57;1568389;91;24832;-67
2021/10/07 10:57:51;;;;;;;11.38;3.80;;;;;;;15.93;36.36;100548.52;1570201;90;20972;-68
2021/10/07 11:00:28;;;;;;;16.48;3.75;;;;;;;16.01;36.10;100543.59;1570631;90;21804;-67
2021/10/07 11:03:23;;;;;;;15.38;4.08;;;;;;;16.08;35.42;100536.89;1572291;90;21519;-67
2021/10/07 11:06:03;;;;;;;12.33;3.92;;;;;;;16.08;35.42;100536.89;1569191;90;20980;-67
2021/10/07 11:08:47;;;;;;;16.42;3.75;;;;;;;16.12;35.13;100526.25;1569891;90;20965;-67
2021/10/07 11:11:24;;;;;;;17.00;3.92;;;;;;;16.18;34.87;100539.97;1568032;89;20974;-67
2021/10/07 11:13:53;;;;;;;17.25;3.98;;;;;;;16.25;34.42;100534.59;1569851;90;21137;-67
2021/10/07 11:16:21;;;;;;;9.58;3.47;;;;;;;16.27;34.13;100523.92;1569060;91;20957;-68
2021/10/07 11:18:49;;;;;;;11.08;4.10;;;;;;;16.27;34.13;100523.92;1570304;90;20977;-67
2021/10/07 11:21:20;;;;;;;9.05;3.12;;;;;;;16.31;34.21;100519.89;1569559;90;20920;-68
2021/10/07 11:23:54;;;;;;;19.20;4.60;;;;;;;16.38;34.28;100522.06;1566788;91;20997;-67
2021/10/07 11:26:31;;;;;;;10.78;3.92;;;;;;;16.48;34.06;100512.22;1565017;89;21128;-68
2021/10/07 11:28:56;;;;;;;12.40;3.35;;;;;;;16.50;33.90;100521.08;1569548;90;21039;-67
2021/10/07 11:31:29;;;;;;;14.55;3.60;;;;;;;16.51;33.70;100518.84;1569361;90;20981;-69
2021/10/07 11:34:00;;;;;;;16.57;3.58;;;;;;;16.47;33.35;100506.01;1572445;89;21451;-68
2021/10/07 11:36:30;;;;;;;17.52;3.87;;;;;;;16.49;33.26;100510.88;1576380;90;21044;-68
2021/10/07 11:38:59;;;;;;;12.03;3.60;;;;;;;16.51;33.23;100516.19;1574888;89;21771;-68
2021/10/07 11:41:34;;;;;;;17.60;3.55;;;;;;;16.55;33.03;100511.27;1573983;89;21019;-68
2021/10/07 11:44:04;;;;;;;9.55;3.30;;;;;;;16.60;33.12;100516.14;1578712;90;20969;-70
2021/10/07 11:46:35;;;;;;;18.05;4.05;;;;;;;16.64;33.17;100512.09;1573021;90;20944;-72
2021/10/07 11:49:02;;;;;;;18.85;3.33;;;;;;;16.75;33.18;100516.03;1573538;90;20953;-68